Time;durP1;ratioP1;P1;durP2;ratioP2;P2;SDS_P1;SDS_P2;PMS_P1;PMS_P2;Temp;Humidity;BMP_temperature;BMP_pressure;BME280_temperature;BME280_humidity;BME280_pressure;Samples;Min_cycle;Max_cycle;Signal;HPM_P1;HPM_P2
2023/10/29 00:00:28;;;;;;;;;0.33;0.00;;;;;12.87;91.66;98598.72;5082917;27;44996;-83
2023/10/29 00:02:54;;;;;;;;;0.00;0.00;;;;;12.90;92.76;98609.13;5081995;27;45942;-83
2023/10/29 00:05:21;;;;;;;;;0.00;0.00;;;;;12.68;92.32;98573.84;5088006;27;45371;-82
2023/10/29 00:07:47;;;;;;;;;0.00;0.00;;;;;12.93;92.55;98604.31;5091774;27;45278;-86
2023/10/29 00:10:12;;;;;;;;;0.00;0.00;;;;;12.97;92.64;98600.38;5084771;28;45318;-86
2023/10/29 00:12:38;;;;;;;;;1.00;0.00;;;;;12.69;92.93;98556.03;5088284;28;45605;-85
2023/10/29 00:15:07;;;;;;;;;0.00;0.00;;;;;12.93;92.90;98566.97;5091955;28;45224;-84
2023/10/29 00:17:32;;;;;;;;;0.00;0.00;;;;;12.81;93.34;98520.16;5092736;28;45459;-84
2023/10/29 00:19:59;;;;;;;;;0.67;0.67;;;;;13.12;93.50;98570.50;5084521;27;45412;-85
2023/10/29 00:22:25;;;;;;;;;0.00;0.00;;;;;13.15;93.68;98568.38;5083251;27;45549;-82
2023/10/29 00:24:51;;;;;;;;;0.00;0.00;;;;;13.18;93.41;98588.59;5083131;27;45341;-83
2023/10/29 00:27:16;;;;;;;;;0.67;0.33;;;;;13.01;93.56;98544.84;5082961;28;57479;-89
2023/10/29 00:29:41;;;;;;;;;0.00;0.00;;;;;13.22;93.46;98576.63;5087168;28;58567;-83
2023/10/29 00:32:08;;;;;;;;;0.00;0.00;;;;;13.25;93.89;98582.50;5092149;28;46908;-87
2023/10/29 00:34:33;;;;;;;;;0.00;0.00;;;;;12.99;93.82;98526.34;5086913;27;45345;-88
2023/10/29 00:36:59;;;;;;;;;0.33;0.33;;;;;13.33;94.15;98573.75;5088797;27;45344;-86
2023/10/29 00:39:24;;;;;;;;;2.00;1.00;;;;;12.98;93.65;98494.47;5086591;27;45325;-88
2023/10/29 00:41:50;;;;;;;;;1.00;1.00;;;;;12.85;94.31;98494.00;5085879;27;45515;-85
2023/10/29 00:44:15;;;;;;;;;0.00;0.00;;;;;13.36;93.99;98552.06;5090137;27;45287;-84
2023/10/29 00:46:41;;;;;;;;;0.00;0.00;;;;;13.46;93.87;98552.00;5086385;28;53904;-81
2023/10/29 00:49:08;;;;;;;;;0.00;0.00;;;;;13.14;94.40;98509.78;5080880;28;45339;-82
2023/10/29 00:51:34;;;;;;;;;1.00;1.00;;;;;13.30;94.64;98510.00;5081248;27;45310;-86
2023/10/29 00:53:59;;;;;;;;;1.00;1.00;;;;;13.40;94.45;98531.25;5081357;28;45338;-82
2023/10/29 00:56:25;;;;;;;;;0.00;0.00;;;;;13.51;94.74;98545.19;5083246;27;45417;-83
2023/10/29 00:58:53;;;;;;;;;1.00;1.00;;;;;13.53;94.45;98553.03;5083701;27;45600;-83
2023/10/29 01:01:19;;;;;;;;;1.00;1.00;;;;;13.55;94.00;98546.59;5083905;27;45458;-82
2023/10/29 01:03:45;;;;;;;;;0.00;0.00;;;;;13.57;93.54;98555.28;5083876;27;45416;-82
2023/10/29 01:06:10;;;;;;;;;1.00;1.00;;;;;13.61;93.45;98547.78;5087351;27;44992;-88
2023/10/29 01:08:37;;;;;;;;;2.00;0.00;;;;;13.56;93.05;98556.28;5087335;27;45259;-88
2023/10/29 01:11:04;;;;;;;;;2.00;1.00;;;;;13.58;92.70;98546.28;5086342;27;45604;-90
2023/10/29 01:13:29;;;;;;;;;1.00;0.00;;;;;13.67;92.70;98559.66;5066134;28;45355;-84
2023/10/29 01:15:55;;;;;;;;;1.33;0.00;;;;;13.46;92.08;98538.66;5083935;28;48039;-84
2023/10/29 01:18:21;;;;;;;;;3.00;2.00;;;;;13.76;91.78;98582.78;5085731;28;45240;-82
2023/10/29 01:20:47;;;;;;;;;3.33;1.00;;;;;13.78;91.60;98578.13;5086624;27;45397;-86
2023/10/29 01:23:12;;;;;;;;;2.00;1.00;;;;;13.83;90.85;98573.19;5086639;27;45374;-84
2023/10/29 01:25:38;;;;;;;;;0.00;0.00;;;;;13.88;90.67;98584.22;5083096;28;45283;-89
2023/10/29 01:28:04;;;;;;;;;1.33;1.00;;;;;13.90;90.67;98570.69;5084522;27;45493;-86
2023/10/29 01:30:30;;;;;;;;;1.33;1.00;;;;;13.83;89.61;98565.16;5082698;27;45325;-88
2023/10/29 01:32:55;;;;;;;;;3.00;0.00;;;;;13.70;90.24;98544.19;5082826;27;45322;-85
2023/10/29 01:35:21;;;;;;;;;1.00;1.00;;;;;13.52;89.85;98525.50;5085552;27;45322;-85
2023/10/29 01:37:46;;;;;;;;;0.00;0.00;;;;;13.83;89.77;98559.81;5082087;27;45628;-85
2023/10/29 01:40:12;;;;;;;;;0.00;0.00;;;;;13.92;90.02;98587.41;5081734;28;57764;-82
2023/10/29 01:42:38;;;;;;;;;2.00;0.00;;;;;13.94;89.86;98594.31;5082749;27;45333;-82
2023/10/29 01:45:04;;;;;;;;;1.00;1.00;;;;;14.04;89.89;98602.19;5082138;27;45448;-84
2023/10/29 01:47:29;;;;;;;;;0.67;0.67;;;;;14.06;89.39;98613.56;5083217;27;45598;-84
2023/10/29 01:49:54;;;;;;;;;1.67;0.00;;;;;13.86;88.45;98591.56;5081138;27;57523;-83
2023/10/29 01:52:20;;;;;;;;;1.00;1.00;;;;;14.03;88.08;98606.72;5079559;28;58204;-81
2023/10/29 01:54:45;;;;;;;;;1.00;1.00;;;;;14.05;87.34;98606.56;5084055;27;45250;-82
2023/10/29 01:57:11;;;;;;;;;2.00;1.00;;;;;13.84;87.70;98577.53;5097109;27;45391;-83
2023/10/29 01:59:36;;;;;;;;;1.67;0.33;;;;;13.91;87.57;98589.25;5078481;27;50496;-82
2023/10/29 02:02:01;;;;;;;;;2.67;0.33;;;;;14.06;87.39;98610.91;5080238;27;45329;-82
2023/10/29 02:04:30;;;;;;;;;0.33;0.33;;;;;13.99;87.56;98618.72;5080301;27;45420;-82
2023/10/29 02:06:56;;;;;;;;;2.00;1.00;;;;;14.04;87.30;98604.88;5079425;28;45264;-82
2023/10/29 02:09:22;;;;;;;;;1.00;1.00;;;;;14.12;86.81;98629.84;5080454;27;45411;-82
2023/10/29 02:11:47;;;;;;;;;1.00;1.00;;;;;13.64;86.99;98554.66;5080812;28;45425;-83
2023/10/29 02:14:13;;;;;;;;;1.33;1.00;;;;;13.61;86.15;98554.97;5080847;27;45384;-82
2023/10/29 02:16:39;;;;;;;;;2.33;1.00;;;;;14.01;86.09;98626.56;5080001;27;50526;-82
2023/10/29 02:19:05;;;;;;;;;0.00;0.00;;;;;13.94;85.33;98615.69;5080091;27;46175;-83
2023/10/29 02:21:30;;;;;;;;;0.00;0.00;;;;;13.82;85.54;98606.22;5079578;27;45330;-82
2023/10/29 02:23:56;;;;;;;;;1.00;1.00;;;;;13.92;84.85;98620.31;5079952;27;45393;-82
2023/10/29 02:26:24;;;;;;;;;4.00;1.00;;;;;13.91;84.04;98628.50;5080090;27;45577;-83
2023/10/29 02:28:50;;;;;;;;;1.00;1.00;;;;;14.02;84.20;98653.16;5081631;27;45273;-82
2023/10/29 02:31:21;;;;;;;;;0.00;0.00;;;;;14.00;83.65;98647.13;5082397;27;45274;-86
2023/10/29 02:33:47;;;;;;;;;3.67;0.67;;;;;13.83;83.89;98630.13;5084107;28;45320;-84
2023/10/29 02:36:13;;;;;;;;;2.33;2.00;;;;;13.94;83.60;98669.13;5087412;28;45161;-89
2023/10/29 02:38:38;;;;;;;;;0.00;0.00;;;;;13.68;83.73;98641.50;5088902;27;46582;-83
2023/10/29 02:41:07;;;;;;;;;1.67;0.00;;;;;13.92;84.29;98686.28;5086816;28;45321;-82
2023/10/29 02:43:33;;;;;;;;;2.00;0.00;;;;;13.78;84.58;98682.31;5078503;28;45358;-83
2023/10/29 02:45:59;;;;;;;;;1.00;1.00;;;;;13.70;85.00;98671.56;5080469;28;45550;-83
2023/10/29 02:48:25;;;;;;;;;4.00;2.00;;;;;13.61;84.50;98661.78;5079744;27;45535;-83
2023/10/29 02:50:56;;;;;;;;;0.00;0.00;;;;;13.64;84.56;98677.50;5080247;27;45304;-82
2023/10/29 02:53:23;;;;;;;;;1.33;1.00;;;;;13.84;84.73;98721.81;5080650;27;44630;-81
2023/10/29 02:55:48;;;;;;;;;0.00;0.00;;;;;13.77;84.62;98702.03;5079947;27;45488;-82
2023/10/29 02:58:16;;;;;;;;;0.00;0.00;;;;;13.66;84.53;98680.88;5079107;27;45334;-82
2023/10/29 03:00:42;;;;;;;;;0.00;0.00;;;;;13.73;83.83;98688.13;5079448;27;45342;-83
2023/10/29 03:03:07;;;;;;;;;1.00;1.00;;;;;13.76;83.27;98703.84;5077632;28;65511;-82
2023/10/29 03:05:32;;;;;;;;;1.67;1.00;;;;;13.83;83.12;98712.94;5078996;27;45298;-83
2023/10/29 03:07:59;;;;;;;;;6.00;0.00;;;;;13.84;83.37;98716.47;5078330;28;69507;-82
2023/10/29 03:10:25;;;;;;;;;1.33;0.00;;;;;13.79;82.95;98714.22;5080342;28;45210;-82
2023/10/29 03:12:50;;;;;;;;;0.00;0.00;;;;;13.83;82.95;98730.81;5079739;27;45211;-82
2023/10/29 03:15:16;;;;;;;;;1.67;0.00;;;;;13.48;83.01;98665.69;5079901;28;54461;-82
2023/10/29 03:17:41;;;;;;;;;1.67;1.00;;;;;13.76;82.01;98711.03;5080804;27;45405;-82
2023/10/29 03:20:07;;;;;;;;;3.00;0.00;;;;;13.32;82.14;98657.50;5080026;28;58469;-82
2023/10/29 03:22:33;;;;;;;;;2.00;0.00;;;;;13.67;81.61;98712.78;5081163;27;45514;-82
2023/10/29 03:24:58;;;;;;;;;0.33;0.33;;;;;13.50;81.15;98682.38;5080804;27;45477;-81
2023/10/29 03:27:24;;;;;;;;;0.67;0.67;;;;;13.13;80.82;98614.88;5079029;27;45374;-82
2023/10/29 03:29:49;;;;;;;;;2.00;1.00;;;;;13.57;80.42;98698.66;5079194;27;45261;-82
2023/10/29 03:32:14;;;;;;;;;2.33;1.00;;;;;13.46;80.69;98690.84;5079168;27;45326;-83
2023/10/29 03:34:40;;;;;;;;;0.67;0.67;;;;;13.45;80.21;98711.38;5079488;27;45440;-82
2023/10/29 03:37:05;;;;;;;;;3.00;0.00;;;;;13.30;79.84;98691.53;5078538;28;55665;-83
2023/10/29 03:39:31;;;;;;;;;2.00;0.33;;;;;13.46;79.16;98730.91;5078570;27;45452;-83
2023/10/29 03:41:56;;;;;;;;;2.00;1.00;;;;;13.44;79.53;98723.06;5078833;27;45306;-83
2023/10/29 03:44:22;;;;;;;;;8.67;2.00;;;;;13.43;78.88;98745.41;5078369;27;45612;-83
2023/10/29 03:46:51;;;;;;;;;1.67;0.00;;;;;13.34;78.41;98732.94;5078261;28;45561;-82
2023/10/29 03:49:18;;;;;;;;;1.00;1.00;;;;;13.34;78.15;98724.09;5078424;27;45438;-83
2023/10/29 03:51:45;;;;;;;;;2.00;0.00;;;;;13.43;78.51;98749.91;5078538;27;45423;-82
2023/10/29 03:54:11;;;;;;;;;0.00;0.00;;;;;13.24;77.55;98729.47;5079572;27;45618;-85
2023/10/29 03:56:36;;;;;;;;;1.67;1.00;;;;;13.25;77.83;98733.81;5078493;27;45394;-82
2023/10/29 03:59:01;;;;;;;;;2.00;0.33;;;;;13.39;77.35;98770.69;5078206;27;45423;-82
2023/10/29 04:01:26;;;;;;;;;3.33;0.67;;;;;13.35;77.93;98741.78;5077638;28;45290;-82
2023/10/29 04:03:52;;;;;;;;;0.00;0.00;;;;;13.07;77.75;98691.03;5077305;28;46924;-84
2023/10/29 04:06:17;;;;;;;;;0.67;0.00;;;;;13.31;78.24;98735.91;5077762;27;45329;-83
2023/10/29 04:08:43;;;;;;;;;0.00;0.00;;;;;12.78;78.29;98685.84;5078028;27;45330;-83
2023/10/29 04:11:08;;;;;;;;;0.00;0.00;;;;;13.16;78.81;98745.38;5078654;27;45499;-84
2023/10/29 04:13:33;;;;;;;;;7.00;2.00;;;;;13.21;79.35;98743.13;5077704;28;62410;-85
2023/10/29 04:15:59;;;;;;;;;1.00;1.00;;;;;13.12;79.39;98730.63;5078516;27;46644;-83
2023/10/29 04:18:27;;;;;;;;;1.33;1.00;;;;;13.21;79.35;98754.63;5078644;28;45315;-83
2023/10/29 04:20:54;;;;;;;;;2.67;1.33;;;;;12.94;79.43;98726.06;5080612;27;45520;-82
2023/10/29 04:23:19;;;;;;;;;2.00;0.67;;;;;13.09;80.00;98761.13;5078842;27;45278;-83
2023/10/29 04:25:45;;;;;;;;;2.33;1.00;;;;;12.94;80.28;98747.41;5059365;28;46935;-83
2023/10/29 04:28:12;;;;;;;;;1.33;0.33;;;;;12.75;80.29;98735.94;5079810;27;45432;-84
2023/10/29 04:30:37;;;;;;;;;3.67;1.00;;;;;12.99;80.29;98779.81;5081193;27;45334;-85
2023/10/29 04:33:05;;;;;;;;;2.00;0.67;;;;;12.91;79.87;98761.06;5079340;27;45203;-83
2023/10/29 04:35:30;;;;;;;;;1.67;1.00;;;;;12.83;79.97;98752.91;5077851;27;45618;-81
2023/10/29 04:37:56;;;;;;;;;1.00;1.00;;;;;12.93;79.91;98774.25;5077913;28;54998;-83
2023/10/29 04:40:21;;;;;;;;;2.33;1.33;;;;;12.55;79.80;98733.34;5079465;27;51179;-82
2023/10/29 04:42:47;;;;;;;;;1.00;1.00;;;;;12.83;80.22;98760.09;5077830;28;45453;-83
2023/10/29 04:45:13;;;;;;;;;2.67;1.67;;;;;12.80;80.54;98763.03;5077380;27;46349;-82
2023/10/29 04:47:39;;;;;;;;;1.33;1.00;;;;;12.63;80.67;98733.47;5076981;27;45257;-83
2023/10/29 04:50:05;;;;;;;;;2.00;0.67;;;;;12.83;80.95;98781.44;5077145;28;45392;-83
2023/10/29 04:52:31;;;;;;;;;1.33;0.33;;;;;12.74;81.14;98755.59;5077281;28;45558;-82
2023/10/29 04:54:56;;;;;;;;;3.33;2.00;;;;;12.80;81.66;98766.56;5076409;27;46379;-83
2023/10/29 04:57:22;;;;;;;;;0.33;0.33;;;;;12.80;81.80;98757.72;5075912;28;45778;-83
2023/10/29 04:59:48;;;;;;;;;4.00;1.00;;;;;12.61;82.24;98735.41;5077536;28;45338;-81
2023/10/29 05:02:15;;;;;;;;;2.00;0.33;;;;;12.76;82.34;98772.31;5080988;28;45556;-82
2023/10/29 05:04:41;;;;;;;;;1.67;1.67;;;;;12.45;82.42;98721.00;5098607;27;46399;-82
2023/10/29 05:07:08;;;;;;;;;3.00;2.00;;;;;12.62;82.94;98754.94;5082067;27;45165;-83
2023/10/29 05:09:35;;;;;;;;;1.33;1.33;;;;;12.36;82.83;98712.88;5083155;27;45432;-82
2023/10/29 05:12:00;;;;;;;;;4.00;1.00;;;;;12.44;83.47;98735.31;5083392;27;45424;-83
2023/10/29 05:14:26;;;;;;;;;5.00;1.67;;;;;12.48;83.65;98744.72;5098390;27;46357;-83
2023/10/29 05:16:52;;;;;;;;;3.00;2.00;;;;;12.31;83.86;98719.63;5087517;27;45420;-83
2023/10/29 05:19:17;;;;;;;;;0.00;0.00;;;;;12.37;84.14;98735.06;5088660;27;45421;-84
2023/10/29 05:21:43;;;;;;;;;4.00;1.67;;;;;12.10;84.35;98685.13;5086172;27;45221;-86
2023/10/29 05:24:09;;;;;;;;;3.67;0.67;;;;;12.37;83.83;98735.91;5084108;27;47261;-84
2023/10/29 05:26:36;;;;;;;;;2.00;1.00;;;;;12.61;83.95;98775.44;5084839;27;45369;-82
2023/10/29 05:29:05;;;;;;;;;4.00;1.00;;;;;12.59;84.55;98773.88;5081928;27;45342;-83
2023/10/29 05:31:31;;;;;;;;;2.00;0.00;;;;;12.57;84.85;98770.53;5080249;27;45396;-82
2023/10/29 05:33:57;;;;;;;;;1.00;1.00;;;;;12.47;85.33;98751.88;5079785;27;45459;-84
2023/10/29 05:36:22;;;;;;;;;6.67;1.00;;;;;12.54;85.10;98770.81;5080034;27;45432;-83
2023/10/29 05:38:48;;;;;;;;;2.00;1.00;;;;;12.53;85.51;98782.47;5079044;28;45371;-83
2023/10/29 05:41:13;;;;;;;;;3.33;2.00;;;;;12.37;85.67;98762.56;5078994;27;45528;-83
2023/10/29 05:43:39;;;;;;;;;3.00;3.00;;;;;12.28;86.57;98755.41;5080228;27;45994;-83
2023/10/29 05:46:05;;;;;;;;;1.00;1.00;;;;;12.37;86.42;98765.25;5080227;28;45209;-82
2023/10/29 05:48:31;;;;;;;;;2.00;1.00;;;;;12.46;87.14;98784.00;5081496;27;45279;-82
2023/10/29 05:50:56;;;;;;;;;4.33;2.00;;;;;11.92;87.96;98714.31;5081623;28;45167;-83
2023/10/29 05:53:21;;;;;;;;;4.00;1.00;;;;;12.11;88.29;98750.81;5086059;27;45175;-83
2023/10/29 05:55:47;;;;;;;;;3.00;3.00;;;;;12.18;88.47;98761.72;5092326;28;45161;-84
2023/10/29 05:58:12;;;;;;;;;2.33;1.33;;;;;12.29;89.56;98786.41;5093953;27;45156;-82
2023/10/29 06:00:37;;;;;;;;;1.00;1.00;;;;;12.36;89.66;98792.84;5088810;27;45447;-82
2023/10/29 06:03:03;;;;;;;;;4.00;1.00;;;;;12.24;90.31;98767.34;5087354;27;46225;-85
2023/10/29 06:05:30;;;;;;;;;2.67;2.67;;;;;12.14;90.80;98749.69;5089087;27;45400;-83
2023/10/29 06:07:57;;;;;;;;;1.00;1.00;;;;;12.35;90.81;98774.34;5079740;27;45326;-83
2023/10/29 06:10:22;;;;;;;;;0.00;0.00;;;;;12.33;90.63;98793.13;5078471;27;45423;-83
2023/10/29 06:12:47;;;;;;;;;2.67;2.00;;;;;11.77;91.87;98711.22;5078772;27;46080;-83
2023/10/29 06:15:13;;;;;;;;;0.00;0.00;;;;;12.21;92.38;98798.75;5079055;28;54769;-85
2023/10/29 06:17:39;;;;;;;;;2.67;0.00;;;;;12.14;92.40;98787.81;5079751;27;45271;-82
2023/10/29 06:20:05;;;;;;;;;5.00;1.00;;;;;12.25;92.83;98822.34;5080184;27;45321;-82
2023/10/29 06:22:32;;;;;;;;;2.00;2.00;;;;;12.02;93.63;98775.63;5080435;27;45341;-81
2023/10/29 06:24:58;;;;;;;;;1.00;1.00;;;;;11.96;93.94;98770.81;5080831;27;45286;-83
2023/10/29 06:27:23;;;;;;;;;0.67;0.67;;;;;11.78;93.96;98742.19;5082513;27;45300;-83
2023/10/29 06:29:49;;;;;;;;;2.00;1.00;;;;;12.19;94.38;98806.03;5081454;27;45287;-83
2023/10/29 06:32:14;;;;;;;;;3.33;1.33;;;;;12.18;94.28;98821.19;5078094;28;66513;-82
2023/10/29 06:34:39;;;;;;;;;1.67;1.67;;;;;12.17;94.71;98824.84;5079773;27;51828;-82
2023/10/29 06:37:05;;;;;;;;;2.67;2.00;;;;;11.92;94.50;98783.59;5079325;27;49325;-82
2023/10/29 06:39:31;;;;;;;;;4.33;1.33;;;;;11.84;95.05;98774.59;5080184;28;45563;-82
2023/10/29 06:41:56;;;;;;;;;1.00;1.00;;;;;11.91;95.08;98778.41;5079853;27;45413;-82
2023/10/29 06:44:21;;;;;;;;;0.00;0.00;;;;;11.60;95.00;98738.53;5079217;27;45431;-83
2023/10/29 06:46:47;;;;;;;;;0.33;0.33;;;;;12.03;95.61;98807.44;5078744;28;45398;-83
2023/10/29 06:49:12;;;;;;;;;0.33;0.33;;;;;11.63;95.50;98746.22;5080157;27;45566;-83
2023/10/29 06:51:38;;;;;;;;;0.00;0.00;;;;;12.00;95.69;98825.53;5079948;27;45737;-82
2023/10/29 06:54:04;;;;;;;;;1.00;1.00;;;;;11.94;95.74;98816.25;5082741;28;45444;-83
2023/10/29 06:56:30;;;;;;;;;2.67;1.00;;;;;12.06;95.30;98838.28;5085167;27;45310;-87
2023/10/29 06:58:55;;;;;;;;;1.00;1.00;;;;;12.06;95.47;98843.63;5083190;27;45556;-90
2023/10/29 07:01:21;;;;;;;;;2.33;1.00;;;;;11.78;94.79;98802.59;5082738;27;45321;-88
2023/10/29 07:03:46;;;;;;;;;1.00;1.00;;;;;11.80;95.36;98812.16;5080646;27;45176;-88
2023/10/29 07:06:14;;;;;;;;;2.00;1.00;;;;;11.78;95.06;98808.75;5082754;27;45221;-88
2023/10/29 07:08:39;;;;;;;;;4.67;1.67;;;;;11.94;94.96;98823.41;5084376;28;45564;-86
2023/10/29 07:11:05;;;;;;;;;1.67;1.00;;;;;12.01;94.71;98840.53;5083554;27;45432;-83
2023/10/29 07:13:31;;;;;;;;;4.33;2.00;;;;;12.18;94.66;98863.00;5083613;27;45326;-83
2023/10/29 07:15:59;;;;;;;;;1.00;1.00;;;;;12.12;94.07;98843.09;5084016;27;45294;-86
2023/10/29 07:18:24;;;;;;;;;1.67;0.00;;;;;12.25;94.33;98853.47;5085339;27;45342;-87
2023/10/29 07:20:53;;;;;;;;;1.00;0.00;;;;;12.07;93.71;98818.66;5083635;27;45415;-83
2023/10/29 07:23:20;;;;;;;;;0.33;0.33;;;;;12.26;93.74;98824.03;5085126;27;45292;-84
2023/10/29 07:25:47;;;;;;;;;2.33;1.33;;;;;12.29;93.90;98828.22;5082565;28;45380;-83
2023/10/29 07:28:13;;;;;;;;;1.00;0.00;;;;;12.06;93.41;98777.84;5087520;27;45561;-86
2023/10/29 07:30:38;;;;;;;;;3.33;1.00;;;;;12.57;92.88;98842.53;5086039;27;45709;-86
2023/10/29 07:33:04;;;;;;;;;0.00;0.00;;;;;12.38;92.66;98774.06;5086065;27;45200;-82
2023/10/29 07:35:31;;;;;;;;;2.00;1.67;;;;;12.51;92.30;98798.63;5084169;27;45322;-82
2023/10/29 07:37:56;;;;;;;;;2.00;1.00;;;;;12.56;92.39;98807.03;5084904;27;45360;-83
2023/10/29 07:40:21;;;;;;;;;1.33;0.00;;;;;12.77;91.81;98825.53;5082499;27;46506;-83
2023/10/29 07:42:47;;;;;;;;;2.33;0.00;;;;;12.68;91.74;98821.03;5081443;28;62299;-82
2023/10/29 07:45:12;;;;;;;;;0.00;0.00;;;;;12.39;91.51;98760.59;5083816;27;45345;-83
2023/10/29 07:47:37;;;;;;;;;0.00;0.00;;;;;12.81;91.57;98810.91;5082590;28;53639;-83
2023/10/29 07:50:04;;;;;;;;;2.33;1.00;;;;;12.66;91.66;98785.69;5100752;27;47259;-83
2023/10/29 07:52:33;;;;;;;;;1.00;1.00;;;;;12.85;91.47;98819.47;5104660;27;45838;-84
2023/10/29 07:54:59;;;;;;;;;1.00;1.00;;;;;12.77;91.76;98801.53;5088537;28;45228;-86
2023/10/29 07:57:25;;;;;;;;;2.00;0.00;;;;;12.92;91.65;98813.44;5084124;28;49443;-86
2023/10/29 07:59:51;;;;;;;;;2.00;1.00;;;;;12.93;91.58;98831.13;5084247;28;46446;-84
2023/10/29 08:02:16;;;;;;;;;4.00;2.00;;;;;12.62;91.77;98754.94;5086296;27;45330;-88
2023/10/29 08:04:42;;;;;;;;;1.67;1.00;;;;;12.89;90.86;98811.06;5089468;27;45532;-85
2023/10/29 08:07:08;;;;;;;;;1.00;1.00;;;;;12.87;91.89;98804.16;5092563;27;45247;-87
2023/10/29 08:09:33;;;;;;;;;5.00;1.33;;;;;12.89;91.44;98810.19;5089475;27;45386;-84
2023/10/29 08:12:00;;;;;;;;;5.00;2.00;;;;;12.87;91.35;98807.66;5083572;28;45457;-84
2023/10/29 08:14:26;;;;;;;;;2.33;2.00;;;;;12.81;91.78;98802.91;5079936;27;45323;-85
2023/10/29 08:16:51;;;;;;;;;1.67;1.67;;;;;12.74;91.62;98780.44;5080088;27;45341;-83
2023/10/29 08:19:16;;;;;;;;;1.00;1.00;;;;;12.70;91.54;98757.72;5079389;27;45472;-83
2023/10/29 08:21:42;;;;;;;;;1.00;1.00;;;;;12.87;91.02;98794.31;5077111;28;45352;-83
2023/10/29 08:24:08;;;;;;;;;2.00;1.00;;;;;13.16;92.15;98838.78;5077778;28;45376;-81
2023/10/29 08:26:33;;;;;;;;;3.00;2.00;;;;;13.17;91.73;98835.13;5099502;27;45484;-86
2023/10/29 08:28:59;;;;;;;;;1.00;1.00;;;;;13.12;92.68;98832.03;5086635;27;46068;-83
2023/10/29 08:31:24;;;;;;;;;0.33;0.33;;;;;12.87;93.08;98782.81;5086393;27;45204;-83
2023/10/29 08:33:50;;;;;;;;;2.00;2.00;;;;;13.16;93.51;98834.28;5082383;27;45365;-84
2023/10/29 08:36:16;;;;;;;;;4.00;2.00;;;;;13.18;93.73;98836.81;5087045;27;45240;-85
2023/10/29 08:38:42;;;;;;;;;2.00;1.00;;;;;13.20;94.19;98841.06;5088358;27;46202;-84
2023/10/29 08:41:15;;;;;;;;;1.33;1.33;;;;;13.18;95.55;98827.00;5085848;27;45440;-84
2023/10/29 08:43:41;;;;;;;;;2.00;2.00;;;;;13.05;96.95;98822.94;5083208;27;45235;-84
2023/10/29 08:46:07;;;;;;;;;1.33;1.33;;;;;12.90;96.61;98811.91;5083704;27;45543;-85
2023/10/29 08:48:32;;;;;;;;;2.33;1.00;;;;;13.08;97.62;98862.69;5082547;27;46177;-83
2023/10/29 08:50:58;;;;;;;;;1.67;1.67;;;;;13.02;98.24;98841.91;5081130;28;45290;-85
2023/10/29 08:53:23;;;;;;;;;1.33;1.33;;;;;12.62;97.82;98760.25;5082723;28;45349;-84
2023/10/29 08:55:49;;;;;;;;;2.00;2.00;;;;;12.84;99.17;98810.63;5080404;28;45612;-86
2023/10/29 08:58:14;;;;;;;;;3.00;1.00;;;;;12.84;98.62;98807.97;5082526;27;46176;-82
2023/10/29 09:00:40;;;;;;;;;0.67;0.67;;;;;12.79;98.67;98778.22;5082748;27;45417;-83
2023/10/29 09:03:05;;;;;;;;;1.00;1.00;;;;;12.63;98.92;98741.47;5080871;28;45417;-85
2023/10/29 09:05:31;;;;;;;;;0.00;0.00;;;;;13.08;98.96;98803.97;5082068;28;45421;-84
2023/10/29 09:07:56;;;;;;;;;3.00;1.67;;;;;13.11;98.00;98796.50;5081033;27;46261;-84
2023/10/29 09:10:22;;;;;;;;;1.33;1.00;;;;;13.10;98.14;98783.31;5081426;27;45381;-83
2023/10/29 09:12:48;;;;;;;;;2.67;1.00;;;;;13.23;98.10;98798.03;5081970;27;45338;-83
2023/10/29 09:15:13;;;;;;;;;0.33;0.33;;;;;13.37;97.34;98819.91;5081771;27;45275;-85
2023/10/29 09:17:39;;;;;;;;;2.00;0.00;;;;;13.40;97.83;98796.41;5081535;28;60553;-85
2023/10/29 09:20:05;;;;;;;;;3.00;1.00;;;;;13.27;96.23;98771.88;5080840;28;62874;-84
2023/10/29 09:22:30;;;;;;;;;1.00;1.00;;;;;13.27;96.62;98771.88;5082846;27;45141;-85
2023/10/29 09:24:56;;;;;;;;;0.00;0.00;;;;;13.10;96.54;98727.25;5084905;27;45351;-83
2023/10/29 09:27:21;;;;;;;;;0.00;0.00;;;;;12.84;96.18;98700.41;5082142;28;47026;-84
2023/10/29 09:29:48;;;;;;;;;1.00;1.00;;;;;12.82;96.59;98719.22;5083054;27;45267;-84
2023/10/29 09:32:13;;;;;;;;;2.00;0.00;;;;;12.71;96.59;98722.06;5084132;27;45298;-83
2023/10/29 09:34:39;;;;;;;;;0.00;0.00;;;;;13.26;96.26;98762.19;5083810;27;45518;-84
2023/10/29 09:37:05;;;;;;;;;0.33;0.33;;;;;13.11;95.82;98729.78;5086546;28;45411;-82
2023/10/29 09:39:31;;;;;;;;;1.00;1.00;;;;;13.11;95.63;98743.13;5085622;27;45428;-82
2023/10/29 09:42:08;;;;;;;;;3.00;1.67;;;;;13.27;95.65;98809.25;5082333;27;45484;-84
2023/10/29 09:44:33;;;;;;;;;0.00;0.00;;;;;13.22;95.49;98790.19;5083232;27;45481;-84
2023/10/29 09:47:17;;;;;;;;;0.00;0.00;;;;;13.25;94.17;98789.88;5098138;27;47463;-84
2023/10/29 09:49:43;;;;;;;;;0.00;0.00;;;;;13.12;93.39;98768.00;5081866;27;45366;-82
2023/10/29 09:52:09;;;;;;;;;0.67;0.67;;;;;13.21;93.64;98788.50;5081612;27;45417;-83
2023/10/29 09:54:37;;;;;;;;;1.00;1.00;;;;;13.25;93.11;98806.75;5081643;27;45592;-82
2023/10/29 09:57:03;;;;;;;;;0.00;0.00;;;;;13.24;93.02;98777.53;5081530;28;45525;-84
2023/10/29 09:59:29;;;;;;;;;1.00;1.00;;;;;12.97;93.13;98717.75;5080023;28;45248;-84
2023/10/29 10:01:55;;;;;;;;;0.67;0.33;;;;;13.04;92.76;98733.22;5087318;27;45441;-83
2023/10/29 10:04:21;;;;;;;;;1.00;1.00;;;;;13.21;92.54;98745.78;5082151;27;55880;-84
2023/10/29 10:06:48;;;;;;;;;1.00;1.00;;;;;13.62;92.24;98781.00;5082917;28;61411;-84
2023/10/29 10:09:14;;;;;;;;;0.00;0.00;;;;;13.51;91.47;98737.47;5099062;27;45341;-86
2023/10/29 10:11:39;;;;;;;;;1.00;1.00;;;;;13.87;91.26;98793.63;5084125;27;45281;-85
2023/10/29 10:14:05;;;;;;;;;1.00;1.00;;;;;13.80;91.28;98784.53;5082926;27;45521;-84
2023/10/29 10:16:30;;;;;;;;;0.67;0.67;;;;;13.88;90.65;98789.97;5081793;28;45216;-84
2023/10/29 10:18:58;;;;;;;;;2.00;1.00;;;;;14.01;90.53;98803.81;5081608;28;45419;-83
2023/10/29 10:21:27;;;;;;;;;0.00;0.00;;;;;14.22;88.77;98805.38;5081903;27;45299;-83
2023/10/29 10:23:55;;;;;;;;;1.00;0.00;;;;;13.82;88.49;98711.28;5081782;27;44872;-84
2023/10/29 10:26:28;;;;;;;;;1.00;1.00;;;;;14.36;87.55;98802.16;5080759;27;46491;-85
2023/10/29 10:28:55;;;;;;;;;2.00;0.00;;;;;14.42;87.12;98806.88;5080725;27;45543;-84
2023/10/29 10:31:21;;;;;;;;;0.00;0.00;;;;;14.41;86.83;98790.00;5081531;27;45318;-84
2023/10/29 10:33:46;;;;;;;;;0.00;0.00;;;;;14.35;86.43;98761.19;5082862;27;45304;-85
2023/10/29 10:36:12;;;;;;;;;0.00;0.00;;;;;13.93;85.14;98691.47;5081480;27;45565;-83
2023/10/29 10:38:51;;;;;;;;;1.00;1.00;;;;;14.52;84.71;98783.59;5082900;27;45234;-85
2023/10/29 10:41:17;;;;;;;;;0.00;0.00;;;;;14.60;84.09;98782.84;5083384;27;45242;-84
2023/10/29 10:43:43;;;;;;;;;1.00;1.00;;;;;14.68;83.33;98758.78;5084081;27;45503;-85
2023/10/29 10:46:13;;;;;;;;;1.33;0.33;;;;;14.46;82.61;98706.66;5082906;27;45747;-85
2023/10/29 10:48:41;;;;;;;;;0.67;0.00;;;;;14.58;81.28;98716.09;5082481;28;45322;-84
2023/10/29 10:51:10;;;;;;;;;0.00;0.00;;;;;15.09;80.67;98773.25;5082107;28;45320;-84
2023/10/29 10:53:38;;;;;;;;;0.67;0.00;;;;;15.23;79.79;98729.81;5082216;27;45485;-84
2023/10/29 10:56:08;;;;;;;;;0.00;0.00;;;;;15.86;76.66;98763.41;5082023;27;45655;-84
2023/10/29 10:58:34;;;;;;;;;0.00;0.00;;;;;16.05;75.09;98732.78;5081762;27;45453;-83
2023/10/29 11:01:00;;;;;;;;;0.00;0.00;;;;;16.55;74.27;98761.31;5083168;28;45823;-84
2023/10/29 11:03:30;;;;;;;;;2.00;0.00;;;;;16.74;71.83;98767.19;5082515;27;45496;-84
2023/10/29 11:05:56;;;;;;;;;0.67;0.00;;;;;16.85;70.40;98749.88;5082541;27;45492;-84
2023/10/29 11:08:23;;;;;;;;;0.00;0.00;;;;;16.72;70.11;98714.69;5098769;27;45429;-86
2023/10/29 11:10:49;;;;;;;;;0.00;0.00;;;;;16.91;69.21;98733.06;5083826;27;45118;-83
2023/10/29 11:13:20;;;;;;;;;0.67;0.00;;;;;17.14;69.21;98745.78;5085621;28;45604;-84
2023/10/29 11:15:49;;;;;;;;;0.00;0.00;;;;;17.39;68.85;98761.66;5088596;27;46112;-83
2023/10/29 11:18:27;;;;;;;;;0.00;0.00;;;;;17.81;68.12;98746.19;5066321;28;45250;-83
2023/10/29 11:20:55;;;;;;;;;0.00;0.00;;;;;18.33;65.87;98775.09;5085701;27;45164;-83
2023/10/29 11:23:28;;;;;;;;;0.00;0.00;;;;;18.33;64.54;98762.47;5087601;27;45550;-85
2023/10/29 11:26:22;;;;;;;;;1.00;1.00;;;;;18.38;63.23;98784.31;5090590;27;46193;-84
2023/10/29 11:28:50;;;;;;;;;2.00;0.00;;;;;18.08;64.23;98798.63;5082188;27;45266;-83